Time,TemperatureF,DewpointF,PressureIn,WindDirection,WindDirectionDegrees,WindSpeedMPH,WindSpeedGustMPH,Humidity,HourlyPrecipIn,Conditions,Clouds,dailyrainin,SoftwareType,DateUTC
2013-04-20 00:00:00,51.2,46.0,30.16,NNE,22,0.0,2.0,81,0.00,,,0.00,weatherlink.com 1.10,2013-04-20 07:00:00,
2013-04-20 00:15:00,51.2,46.0,30.16,NNE,17,0.0,2.0,81,0.00,,,0.00,weatherlink.com 1.10,2013-04-20 07:15:00,
2013-04-20 00:30:00,51.3,46.0,30.17,NNE,14,1.0,2.0,81,0.00,,,0.00,weatherlink.com 1.10,2013-04-20 07:30:00,
2013-04-20 00:45:00,50.9,46.0,30.18,NNE,24,0.0,2.0,82,0.00,,,0.00,weatherlink.com 1.10,2013-04-20 07:45:00,
2013-04-20 01:00:00,50.4,45.0,30.18,NNE,26,0.0,1.0,83,0.00,,,0.00,weatherlink.com 1.10,2013-04-20 08:00:00,
2013-04-20 01:15:00,50.8,45.0,30.18,NNE,19,0.0,2.0,81,0.00,,,0.00,weatherlink.com 1.10,2013-04-20 08:15:00,
2013-04-20 01:30:00,50.7,45.0,30.17,NNW,337,0.0,2.0,80,0.00,,,0.00,weatherlink.com 1.10,2013-04-20 08:30:00,
2013-04-20 01:45:00,50.1,45.0,30.17,North,5,0.0,1.0,83,0.00,,,0.00,weatherlink.com 1.10,2013-04-20 08:45:00,
2013-04-20 02:00:00,50.3,45.0,30.17,North,5,0.0,1.0,83,0.00,,,0.00,weatherlink.com 1.10,2013-04-20 09:00:00,
2013-04-20 02:15:00,50.3,45.0,30.17,NNW,331,0.0,1.0,81,0.00,,,0.00,weatherlink.com 1.10,2013-04-20 09:15:00,
2013-04-20 02:30:00,49.6,44.0,30.17,SW,215,0.0,1.0,81,0.00,,,0.00,weatherlink.com 1.10,2013-04-20 09:30:00,
2013-04-20 02:45:00,49.7,44.0,30.17,WNW,296,0.0,4.0,81,0.00,,,0.00,weatherlink.com 1.10,2013-04-20 09:45:00,
2013-04-20 03:00:00,49.3,44.0,30.16,SSW,210,0.0,1.0,82,0.00,,,0.00,weatherlink.com 1.10,2013-04-20 10:00:00,
2013-04-20 03:15:00,49.4,44.0,30.17,ENE,70,0.0,4.0,81,0.00,,,0.00,weatherlink.com 1.10,2013-04-20 10:15:00,
2013-04-20 03:31:00,48.6,44.0,30.16,East,82,0.0,2.0,83,0.00,,,0.00,weatherlink.com 1.10,2013-04-20 10:31:00,
2013-04-20 03:46:00,49.4,44.0,30.16,East,101,0.0,2.0,80,0.00,,,0.00,weatherlink.com 1.10,2013-04-20 10:46:00,
2013-04-20 04:01:00,49.5,43.0,30.16,NNW,336,0.0,2.0,78,0.00,,,0.00,weatherlink.com 1.10,2013-04-20 11:01:00,
2013-04-20 04:16:00,49.4,44.0,30.16,NE,53,0.0,3.0,80,0.00,,,0.00,weatherlink.com 1.10,2013-04-20 11:16:00,
2013-04-20 04:31:00,48.7,43.0,30.16,NW,325,0.0,2.0,81,0.00,,,0.00,weatherlink.com 1.10,2013-04-20 11:31:00,
2013-04-20 04:46:00,48.4,43.0,30.16,NNE,15,0.0,3.0,82,0.00,,,0.00,weatherlink.com 1.10,2013-04-20 11:46:00,
2013-04-20 05:01:00,48.3,43.0,30.16,South,189,0.0,2.0,82,0.00,,,0.00,weatherlink.com 1.10,2013-04-20 12:01:00,
2013-04-20 05:16:00,47.7,43.0,30.16,NE,38,0.0,1.0,83,0.00,,,0.00,weatherlink.com 1.10,2013-04-20 12:16:00,
2013-04-20 05:31:00,47.4,43.0,30.16,North,355,0.0,2.0,84,0.00,,,0.00,weatherlink.com 1.10,2013-04-20 12:31:00,
2013-04-20 05:46:00,47.4,43.0,30.16,NNE,19,0.0,5.0,85,0.00,,,0.00,weatherlink.com 1.10,2013-04-20 12:46:00,
2013-04-20 06:01:00,47.2,43.0,30.16,North,355,0.0,0.0,85,0.00,,,0.00,weatherlink.com 1.10,2013-04-20 13:01:00,
2013-04-20 06:16:00,46.8,43.0,30.16,North,5,0.0,1.0,85,0.00,,,0.00,weatherlink.com 1.10,2013-04-20 13:16:00,
2013-04-20 06:31:00,46.5,43.0,30.16,North,10,0.0,0.0,86,0.00,,,0.00,weatherlink.com 1.10,2013-04-20 13:31:00,
2013-04-20 06:46:00,46.4,43.0,30.16,North,360,0.0,1.0,87,0.00,,,0.00,weatherlink.com 1.10,2013-04-20 13:46:00,
2013-04-20 07:01:00,46.4,43.0,30.16,North,5,0.0,2.0,87,0.00,,,0.00,weatherlink.com 1.10,2013-04-20 14:01:00,
2013-04-20 07:16:00,46.4,43.0,30.16,NNE,22,0.0,3.0,88,0.00,,,0.00,weatherlink.com 1.10,2013-04-20 14:16:00,
2013-04-20 07:31:00,46.3,43.0,30.16,North,5,0.0,0.0,88,0.00,,,0.00,weatherlink.com 1.10,2013-04-20 14:31:00,
2013-04-20 07:46:00,46.5,44.0,30.16,North,5,0.0,0.0,89,0.00,,,0.00,weatherlink.com 1.10,2013-04-20 14:46:00,
2013-04-20 08:01:00,46.8,44.0,30.16,North,5,0.0,0.0,89,0.00,,,0.00,weatherlink.com 1.10,2013-04-20 15:01:00,
2013-04-20 08:16:00,48.2,45.0,30.16,North,5,0.0,0.0,89,0.00,,,0.00,weatherlink.com 1.10,2013-04-20 15:16:00,
2013-04-20 08:31:00,50.1,46.0,30.15,North,5,0.0,1.0,84,0.00,,,0.00,weatherlink.com 1.10,2013-04-20 15:31:00,
2013-04-20 08:46:00,51.2,46.0,30.15,NNE,23,0.0,0.0,81,0.00,,,0.00,weatherlink.com 1.10,2013-04-20 15:46:00,
2013-04-20 09:01:00,54.2,47.0,30.14,NNE,23,0.0,0.0,78,0.00,,,0.00,weatherlink.com 1.10,2013-04-20 16:01:00,
2013-04-20 09:16:00,54.6,47.0,30.14,SSW,203,2.0,2.0,75,0.00,,,0.00,weatherlink.com 1.10,2013-04-20 16:16:00,
2013-04-20 09:31:00,52.6,47.0,30.14,SSW,206,2.0,5.0,80,0.00,,,0.00,weatherlink.com 1.10,2013-04-20 16:31:00,
2013-04-20 09:46:00,52.6,47.0,30.13,SSW,211,1.0,5.0,81,0.00,,,0.00,weatherlink.com 1.10,2013-04-20 16:46:00,
2013-04-20 10:01:00,55.6,50.0,30.13,SSW,207,3.0,5.0,80,0.00,,,0.00,weatherlink.com 1.10,2013-04-20 17:01:00,
2013-04-20 10:16:00,55.6,49.0,30.13,SSW,202,3.0,6.0,79,0.00,,,0.00,weatherlink.com 1.10,2013-04-20 17:16:00,
2013-04-20 10:31:00,55.6,50.0,30.13,SSW,211,3.0,5.0,81,0.00,,,0.00,weatherlink.com 1.10,2013-04-20 17:31:00,
2013-04-20 10:46:00,58.9,51.0,30.13,SSW,192,5.0,6.0,74,0.00,,,0.00,weatherlink.com 1.10,2013-04-20 17:46:00,
2013-04-20 11:01:00,59.1,51.0,30.12,SSW,198,4.0,6.0,74,0.00,,,0.00,weatherlink.com 1.10,2013-04-20 18:01:00,
2013-04-20 11:16:00,57.9,51.0,30.12,SW,217,4.0,6.0,77,0.00,,,0.00,weatherlink.com 1.10,2013-04-20 18:16:00,
2013-04-20 11:31:00,59.1,51.0,30.12,SSW,212,4.0,5.0,75,0.00,,,0.00,weatherlink.com 1.10,2013-04-20 18:31:00,
2013-04-20 11:46:00,59.0,51.0,30.11,SW,221,5.0,6.0,75,0.00,,,0.00,weatherlink.com 1.10,2013-04-20 18:46:00,
2013-04-20 12:01:00,59.1,52.0,30.11,SW,225,5.0,7.0,76,0.00,,,0.00,weatherlink.com 1.10,2013-04-20 19:01:00,
2013-04-20 12:16:00,59.8,52.0,30.11,SSW,210,5.0,6.0,74,0.00,,,0.00,weatherlink.com 1.10,2013-04-20 19:16:00,
2013-04-20 12:31:00,60.1,52.0,30.11,SW,217,4.0,7.0,74,0.00,,,0.00,weatherlink.com 1.10,2013-04-20 19:31:00,
2013-04-20 12:46:00,60.2,52.0,30.10,SSW,196,4.0,7.0,73,0.00,,,0.00,weatherlink.com 1.10,2013-04-20 19:46:00,
2013-04-20 13:01:00,60.3,52.0,30.09,SSW,203,5.0,7.0,73,0.00,,,0.00,weatherlink.com 1.10,2013-04-20 20:01:00,
2013-04-20 13:16:00,59.7,51.0,30.09,SSE,148,5.0,7.0,74,0.00,,,0.00,weatherlink.com 1.10,2013-04-20 20:16:00,
2013-04-20 13:32:00,60.9,52.0,30.08,South,190,5.0,7.0,72,0.00,,,0.00,weatherlink.com 1.10,2013-04-20 20:32:00,
2013-04-20 13:47:00,61.0,52.0,30.08,SW,217,4.0,7.0,72,0.00,,,0.00,weatherlink.com 1.10,2013-04-20 20:47:00,
2013-04-20 14:02:00,61.7,52.0,30.08,South,186,4.0,7.0,71,0.00,,,0.00,weatherlink.com 1.10,2013-04-20 21:02:00,
2013-04-20 14:17:00,62.5,53.0,30.07,South,189,4.0,7.0,70,0.00,,,0.00,weatherlink.com 1.10,2013-04-20 21:17:00,
2013-04-20 14:32:00,62.6,52.0,30.07,SSW,207,5.0,8.0,69,0.00,,,0.00,weatherlink.com 1.10,2013-04-20 21:32:00,
2013-04-20 14:47:00,62.7,52.0,30.07,South,178,2.0,8.0,69,0.00,,,0.00,weatherlink.com 1.10,2013-04-20 21:47:00,
2013-04-20 15:02:00,62.4,52.0,30.06,SSW,207,5.0,8.0,69,0.00,,,0.00,weatherlink.com 1.10,2013-04-20 22:02:00,
2013-04-20 15:17:00,62.8,52.0,30.06,SSW,213,4.0,7.0,67,0.00,,,0.00,weatherlink.com 1.10,2013-04-20 22:17:00,
2013-04-20 15:32:00,63.9,52.0,30.06,SSW,213,4.0,7.0,66,0.00,,,0.00,weatherlink.com 1.10,2013-04-20 22:32:00,
2013-04-20 15:47:00,63.4,50.0,30.05,SW,215,5.0,8.0,63,0.00,,,0.00,weatherlink.com 1.10,2013-04-20 22:47:00,
2013-04-20 16:02:00,63.7,51.0,30.05,SW,216,4.0,7.0,64,0.00,,,0.00,weatherlink.com 1.10,2013-04-20 23:02:00,
2013-04-20 16:17:00,62.2,51.0,30.05,SSW,211,6.0,8.0,66,0.00,,,0.00,weatherlink.com 1.10,2013-04-20 23:17:00,
2013-04-20 16:32:00,62.6,51.0,30.04,SSW,210,6.0,7.0,65,0.00,,,0.00,weatherlink.com 1.10,2013-04-20 23:32:00,
2013-04-20 16:47:00,62.9,50.0,30.04,SSW,208,5.0,7.0,63,0.00,,,0.00,weatherlink.com 1.10,2013-04-20 23:47:00,
2013-04-20 17:02:00,63.4,50.0,30.04,SW,214,3.0,6.0,63,0.00,,,0.00,weatherlink.com 1.10,2013-04-21 00:02:00,
2013-04-20 17:17:00,61.8,49.0,30.03,SW,223,5.0,6.0,63,0.00,,,0.00,weatherlink.com 1.10,2013-04-21 00:17:00,
2013-04-20 17:32:00,60.8,50.0,30.03,SSW,192,4.0,6.0,67,0.00,,,0.00,weatherlink.com 1.10,2013-04-21 00:32:00,
2013-04-20 17:47:00,60.1,49.0,30.02,SSW,200,5.0,6.0,67,0.00,,,0.00,weatherlink.com 1.10,2013-04-21 00:47:00,
2013-04-20 18:02:00,60.1,49.0,30.02,SSW,204,4.0,6.0,68,0.00,,,0.00,weatherlink.com 1.10,2013-04-21 01:02:00,
2013-04-20 18:17:00,60.6,49.0,30.02,SSW,193,2.0,5.0,66,0.00,,,0.00,weatherlink.com 1.10,2013-04-21 01:17:00,
2013-04-20 18:32:00,59.2,49.0,30.03,SW,225,2.0,5.0,69,0.00,,,0.00,weatherlink.com 1.10,2013-04-21 01:32:00,
2013-04-20 18:47:00,58.3,49.0,30.03,SSW,211,2.0,5.0,70,0.00,,,0.00,weatherlink.com 1.10,2013-04-21 01:47:00,
2013-04-20 19:02:00,58.6,49.0,30.03,SW,218,1.0,2.0,70,0.00,,,0.00,weatherlink.com 1.10,2013-04-21 02:02:00,
2013-04-20 19:17:00,56.8,48.0,30.03,SW,218,0.0,2.0,72,0.00,,,0.00,weatherlink.com 1.10,2013-04-21 02:17:00,
2013-04-20 19:32:00,55.7,48.0,30.03,SW,218,0.0,1.0,74,0.00,,,0.00,weatherlink.com 1.10,2013-04-21 02:32:00,
2013-04-20 19:47:00,54.3,47.0,30.04,SW,218,0.0,0.0,76,0.00,,,0.00,weatherlink.com 1.10,2013-04-21 02:47:00,
2013-04-20 20:02:00,53.4,47.0,30.04,NNE,21,0.0,0.0,78,0.00,,,0.00,weatherlink.com 1.10,2013-04-21 03:02:00,
2013-04-20 20:17:00,53.0,46.0,30.04,NNE,29,0.0,2.0,78,0.00,,,0.00,weatherlink.com 1.10,2013-04-21 03:17:00,
2013-04-20 20:32:00,52.5,46.0,30.05,NNE,17,0.0,3.0,79,0.00,,,0.00,weatherlink.com 1.10,2013-04-21 03:32:00,
2013-04-20 20:47:00,52.3,46.0,30.05,NNE,28,1.0,3.0,79,0.00,,,0.00,weatherlink.com 1.10,2013-04-21 03:47:00,
2013-04-20 21:02:00,52.0,46.0,30.05,NNE,28,1.0,5.0,79,0.00,,,0.00,weatherlink.com 1.10,2013-04-21 04:02:00,
2013-04-20 21:17:00,51.6,45.0,30.05,NNE,30,0.0,2.0,79,0.00,,,0.00,weatherlink.com 1.10,2013-04-21 04:17:00,
2013-04-20 21:32:00,51.3,45.0,30.06,NNE,28,0.0,2.0,80,0.00,,,0.00,weatherlink.com 1.10,2013-04-21 04:32:00,
2013-04-20 21:47:00,50.9,45.0,30.06,NE,38,0.0,3.0,80,0.00,,,0.00,weatherlink.com 1.10,2013-04-21 04:47:00,
2013-04-20 22:02:00,50.7,45.0,30.06,NNE,28,0.0,1.0,80,0.00,,,0.00,weatherlink.com 1.10,2013-04-21 05:02:00,
2013-04-20 22:17:00,51.0,45.0,30.06,NNE,24,0.0,2.0,80,0.00,,,0.00,weatherlink.com 1.10,2013-04-21 05:17:00,
2013-04-20 22:32:00,51.5,45.0,30.06,NE,34,0.0,0.0,78,0.00,,,0.00,weatherlink.com 1.10,2013-04-21 05:32:00,
2013-04-20 22:47:00,51.3,45.0,30.06,NE,34,0.0,1.0,78,0.00,,,0.00,weatherlink.com 1.10,2013-04-21 05:47:00,
2013-04-20 23:02:00,51.7,45.0,30.05,NNE,26,0.0,4.0,77,0.00,,,0.00,weatherlink.com 1.10,2013-04-21 06:02:00,
2013-04-20 23:17:00,50.8,45.0,30.05,NNE,27,1.0,1.0,79,0.00,,,0.00,weatherlink.com 1.10,2013-04-21 06:17:00,
2013-04-20 23:32:00,50.1,44.0,30.05,NNE,15,0.0,2.0,80,0.00,,,0.00,weatherlink.com 1.10,2013-04-21 06:32:00,
2013-04-20 23:47:00,50.3,44.0,30.05,NE,37,0.0,3.0,80,0.00,,,0.00,weatherlink.com 1.10,2013-04-21 06:47:00,